createdAt,value
2019-02-04T00:00:13.741Z,0.06
2019-02-04T00:05:13.706Z,0.19
2019-02-04T00:10:13.764Z,0.25
2019-02-04T00:15:13.705Z,0.25
2019-02-04T00:20:13.767Z,0.25
2019-02-04T00:25:13.778Z,0.25
2019-02-04T00:30:13.775Z,0.25
2019-02-04T00:35:13.762Z,0.25
2019-02-04T00:40:13.766Z,0.25
2019-02-04T00:45:13.776Z,0.31
2019-02-04T00:50:13.778Z,0.31
2019-02-04T00:55:13.793Z,0.31
2019-02-04T01:00:13.799Z,0.38
2019-02-04T01:05:13.755Z,0.31
2019-02-04T01:10:13.812Z,0.31
2019-02-04T01:15:13.797Z,0.31
2019-02-04T01:20:13.763Z,0.25
2019-02-04T01:25:13.809Z,0.13
2019-02-04T01:30:13.815Z,0
2019-02-04T01:35:13.808Z,-0.06
2019-02-04T01:40:13.826Z,-0.13
2019-02-04T01:45:13.814Z,-0.13
2019-02-04T01:50:13.916Z,-0.13
2019-02-04T01:55:13.832Z,0
2019-02-04T02:00:13.847Z,0
2019-02-04T02:05:13.833Z,0.19
2019-02-04T02:10:13.838Z,0.25
2019-02-04T02:15:13.838Z,0.31
2019-02-04T02:20:13.855Z,0.31
2019-02-04T02:25:13.847Z,0.13
2019-02-04T02:30:13.816Z,0
2019-02-04T02:35:13.877Z,-0.06
2019-02-04T02:40:13.881Z,-0.13
2019-02-04T02:45:13.862Z,-0.31
2019-02-04T02:50:13.874Z,-0.38
2019-02-04T02:55:13.834Z,-0.38
2019-02-04T03:00:13.879Z,-0.44
2019-02-04T03:05:13.888Z,-0.56
2019-02-04T03:10:13.890Z,-0.56
2019-02-04T03:15:13.975Z,-0.5
2019-02-04T03:20:13.861Z,-0.56
2019-02-04T03:25:13.918Z,-0.63
2019-02-04T03:30:13.926Z,-0.63
2019-02-04T03:35:13.921Z,-0.63
2019-02-04T03:40:13.899Z,-0.63
2019-02-04T03:45:13.919Z,-0.56
2019-02-04T03:50:13.886Z,-0.56
2019-02-04T03:55:13.932Z,-0.56
2019-02-04T04:00:13.888Z,-0.56
2019-02-04T04:05:13.938Z,-0.5
2019-02-04T04:10:13.942Z,-0.44
2019-02-04T04:15:13.898Z,-0.44
2019-02-04T04:20:13.941Z,-0.44
2019-02-04T04:25:13.948Z,-0.44
2019-02-04T04:30:13.963Z,-0.38
2019-02-04T04:35:13.942Z,-0.38
2019-02-04T04:40:13.982Z,-0.31
2019-02-04T04:45:13.957Z,-0.25
2019-02-04T04:50:13.963Z,-0.25
2019-02-04T04:55:13.987Z,-0.19
2019-02-04T05:00:13.965Z,-0.19
2019-02-04T05:05:13.979Z,-0.31
2019-02-04T05:10:13.973Z,-0.38
2019-02-04T05:15:14.005Z,-0.38
2019-02-04T05:20:13.995Z,-0.44
2019-02-04T05:25:13.983Z,-0.5
2019-02-04T05:30:13.992Z,-0.5
2019-02-04T05:35:13.998Z,-0.5
2019-02-04T05:40:14.010Z,-0.5
2019-02-04T05:45:14.009Z,-0.5
2019-02-04T05:50:14.008Z,-0.5
2019-02-04T05:55:14.089Z,-0.5
2019-02-04T06:00:14.024Z,-0.5
2019-02-04T06:05:14.023Z,-0.63
2019-02-04T06:10:14.024Z,-0.69
2019-02-04T06:15:14.036Z,-0.81
2019-02-04T06:20:14.059Z,-0.94
2019-02-04T06:25:14.049Z,-1.13
2019-02-04T06:30:14.043Z,-1.19
2019-02-04T06:35:14.049Z,-1.19
2019-02-04T06:40:14.146Z,-1.19
2019-02-04T06:45:14.045Z,-1.25
2019-02-04T06:50:14.045Z,-1.25
2019-02-04T06:55:14.076Z,-1.31
2019-02-04T07:00:14.070Z,-1.38
2019-02-04T07:05:14.072Z,-1.44
2019-02-04T07:10:14.096Z,-1.44
2019-02-04T07:15:14.085Z,-1.44
2019-02-04T07:20:14.088Z,-1.38
2019-02-04T07:25:14.107Z,-1.38
2019-02-04T07:30:14.098Z,-1.31
2019-02-04T07:35:14.099Z,-1.31
2019-02-04T07:40:14.054Z,-1.25
2019-02-04T07:45:14.057Z,-1.13
2019-02-04T07:50:14.110Z,-1
2019-02-04T07:55:14.104Z,-0.94
2019-02-04T08:00:14.071Z,-0.88
2019-02-04T08:05:14.119Z,-0.69
2019-02-04T08:10:14.116Z,-0.56
2019-02-04T08:15:14.132Z,-0.38
2019-02-04T08:20:14.128Z,-0.13
2019-02-04T08:25:14.125Z,1
2019-02-04T08:30:14.142Z,1.5
2019-02-04T08:35:14.092Z,1.56
2019-02-04T08:40:14.154Z,1.94
2019-02-04T08:45:14.154Z,2.38
2019-02-04T08:50:14.147Z,2.44
2019-02-04T08:55:14.109Z,2.56
2019-02-04T09:00:14.150Z,2.63
2019-02-04T09:05:14.169Z,2.81
2019-02-04T09:10:14.941Z,2.81
2019-02-04T09:15:16.159Z,2.75
2019-02-04T09:20:14.177Z,2.75
2019-02-04T09:25:14.134Z,3.13
2019-02-04T09:30:14.179Z,3.06
2019-02-04T09:35:14.174Z,3.06
2019-02-04T09:40:14.193Z,3.25
2019-02-04T09:45:14.185Z,3.44
2019-02-04T09:50:21.352Z,3.63
2019-02-04T09:55:14.193Z,3.94
2019-02-04T10:00:14.194Z,4.25
2019-02-04T10:05:14.217Z,4.38
2019-02-04T10:10:14.213Z,4.5
2019-02-04T10:15:14.211Z,4.56
2019-02-04T10:20:14.258Z,4.75
2019-02-04T10:25:14.273Z,4.88
2019-02-04T10:30:14.225Z,5.25
2019-02-04T10:35:16.733Z,5.5
2019-02-04T10:40:14.203Z,5.63
2019-02-04T10:45:14.249Z,5.63
2019-02-04T10:50:14.228Z,5.75
2019-02-04T10:55:14.270Z,5.81
2019-02-04T11:00:14.258Z,5.88
2019-02-04T11:05:14.258Z,5.81
2019-02-04T11:10:14.262Z,5.81
2019-02-04T11:15:14.294Z,5.88
2019-02-04T11:20:14.268Z,5.94
2019-02-04T11:25:14.270Z,5.94
2019-02-04T11:30:14.418Z,6
2019-02-04T11:35:14.346Z,6
2019-02-04T11:40:14.355Z,6.13
2019-02-04T11:45:14.278Z,6
2019-02-04T11:50:14.434Z,5.81
2019-02-04T11:55:14.338Z,6.13
2019-02-04T12:00:14.250Z,6.25
2019-02-04T12:05:14.300Z,6.63
2019-02-04T12:10:14.319Z,6.5
2019-02-04T12:15:14.301Z,6.31
2019-02-04T12:20:14.316Z,6.13
2019-02-04T12:25:14.325Z,6.31
2019-02-04T12:30:14.328Z,6.25
2019-02-04T12:35:14.310Z,6.13
2019-02-04T12:40:14.333Z,6.25
2019-02-04T12:45:14.337Z,6
2019-02-04T12:50:14.334Z,6
2019-02-04T12:55:14.351Z,5.69
2019-02-04T13:00:14.335Z,5.5
2019-02-04T13:05:14.354Z,5.25
2019-02-04T13:10:14.306Z,5.13
2019-02-04T13:15:14.362Z,5.13
2019-02-04T13:20:14.370Z,5.13
2019-02-04T13:25:14.364Z,5.19
2019-02-04T13:30:14.361Z,5.13
2019-02-04T13:35:14.377Z,5.19
2019-02-04T13:40:14.379Z,5.25
2019-02-04T13:45:14.427Z,5
2019-02-04T13:50:14.391Z,4.94
2019-02-04T13:55:14.373Z,4.75
2019-02-04T14:00:14.390Z,4.69
2019-02-04T14:05:14.584Z,4.38
2019-02-04T14:10:14.407Z,4.31
2019-02-04T14:15:14.459Z,4.25
2019-02-04T14:20:14.638Z,4.25
2019-02-04T14:25:14.436Z,4.13
2019-02-04T14:30:14.619Z,4
2019-02-04T14:35:14.756Z,3.94
2019-02-04T14:40:18.258Z,3.94
2019-02-04T14:45:14.742Z,3.88
2019-02-04T14:50:14.844Z,3.88
2019-02-04T14:55:14.865Z,3.81
2019-02-04T15:00:14.882Z,3.75
2019-02-04T15:05:14.825Z,3.56
2019-02-04T15:10:14.963Z,3.38
2019-02-04T15:15:14.959Z,3.31
2019-02-04T15:20:14.912Z,3.25
2019-02-04T15:25:17.127Z,3
2019-02-04T15:30:14.925Z,2.81
2019-02-04T15:35:14.927Z,2.75
2019-02-04T15:40:14.951Z,2.63
2019-02-04T15:45:14.736Z,2.38
2019-02-04T15:50:15.060Z,2.31
2019-02-04T15:55:15.019Z,2.19
2019-02-04T16:00:15.123Z,2.06
2019-02-04T16:05:14.764Z,1.94
2019-02-04T16:10:15.146Z,1.81
2019-02-04T16:15:14.793Z,1.75
2019-02-04T16:20:15.193Z,1.69
2019-02-04T16:25:15.111Z,1.5
2019-02-04T16:30:14.813Z,1.38
2019-02-04T16:35:15.134Z,1.31
2019-02-04T16:40:15.199Z,1.25
2019-02-04T16:45:15.323Z,1.19
2019-02-04T16:50:15.325Z,1.13
2019-02-04T16:55:15.285Z,1.06
2019-02-04T17:00:14.979Z,1.06
2019-02-04T17:05:15.326Z,0.94
2019-02-04T17:10:15.329Z,0.88
2019-02-04T17:15:15.208Z,0.81
2019-02-04T17:20:15.329Z,0.81
2019-02-04T17:25:15.307Z,0.75
2019-02-04T17:30:15.347Z,0.69
2019-02-04T17:35:15.347Z,0.69
2019-02-04T17:40:15.322Z,0.63
2019-02-04T17:45:15.349Z,0.63
2019-02-04T17:50:15.386Z,0.63
2019-02-04T17:55:15.519Z,0.63
2019-02-04T18:00:15.436Z,0.63
2019-02-04T18:05:15.375Z,0.63
2019-02-04T18:10:19.950Z,0.56
2019-02-04T18:15:15.408Z,0.63
2019-02-04T18:20:15.459Z,0.63
2019-02-04T18:25:14.968Z,0.63
2019-02-04T18:30:15.438Z,0.56
2019-02-04T18:35:15.448Z,0.5
2019-02-04T18:40:15.382Z,0.44
2019-02-04T18:45:15.441Z,0.31
2019-02-04T18:50:15.896Z,0.31
2019-02-04T18:55:14.995Z,0.25
2019-02-04T19:00:15.437Z,0.19
2019-02-04T19:05:15.468Z,0.13
2019-02-04T19:10:15.441Z,0.06
2019-02-04T19:15:15.429Z,0
2019-02-04T19:20:15.483Z,-0.06
2019-02-04T19:25:15.449Z,-0.19
2019-02-04T19:30:15.849Z,-0.25
2019-02-04T19:35:15.487Z,-0.25
2019-02-04T19:40:15.035Z,-0.31
2019-02-04T19:45:15.505Z,-0.31
2019-02-04T19:50:15.512Z,-0.31
2019-02-04T19:55:15.999Z,-0.31
2019-02-04T20:00:15.041Z,-0.31
2019-02-04T20:05:16.015Z,-0.25
2019-02-04T20:10:15.460Z,-0.25
2019-02-04T20:15:15.483Z,-0.25
2019-02-04T20:20:16.023Z,-0.25
2019-02-04T20:25:15.527Z,-0.44
2019-02-04T20:30:15.555Z,-0.44
2019-02-04T20:35:15.479Z,-0.5
2019-02-04T20:40:15.531Z,-0.5
2019-02-04T20:45:16.064Z,-0.5
2019-02-04T20:50:15.040Z,-0.5
2019-02-04T20:55:15.545Z,-0.56
2019-02-04T21:00:15.476Z,-0.56
2019-02-04T21:05:15.115Z,-0.63
2019-02-04T21:10:15.915Z,-0.56
2019-02-04T21:15:15.428Z,-0.56
2019-02-04T21:20:15.546Z,-0.56
2019-02-04T21:25:15.526Z,-0.56
2019-02-04T21:30:19.719Z,-0.56
2019-02-04T21:35:14.739Z,-0.56
2019-02-04T21:40:14.910Z,-0.56
2019-02-04T21:45:14.858Z,-0.5
2019-02-04T21:50:14.709Z,-0.5
2019-02-04T21:55:14.777Z,-0.5
2019-02-04T22:00:14.835Z,-0.5
2019-02-04T22:05:14.717Z,-0.44
2019-02-04T22:10:14.779Z,-0.38
2019-02-04T22:15:14.757Z,-0.38
2019-02-04T22:20:14.766Z,-0.38
2019-02-04T22:25:19.563Z,-0.44
2019-02-04T22:30:14.759Z,-0.44
2019-02-04T22:35:14.788Z,-0.44
2019-02-04T22:40:14.783Z,-0.5
2019-02-04T22:45:14.773Z,-0.5
2019-02-04T22:50:14.892Z,-0.44
2019-02-04T22:55:14.800Z,-0.38
2019-02-04T23:00:14.840Z,-0.38
2019-02-04T23:05:14.798Z,-0.44
2019-02-04T23:10:14.796Z,-0.44
2019-02-04T23:15:14.797Z,-0.44
2019-02-04T23:20:14.811Z,-0.44
2019-02-04T23:25:14.770Z,-0.44
2019-02-04T23:30:14.824Z,-0.44
2019-02-04T23:35:14.830Z,-0.44
2019-02-04T23:40:14.883Z,-0.44
2019-02-04T23:45:14.824Z,-0.38
2019-02-04T23:50:14.834Z,-0.31
2019-02-04T23:55:14.828Z,-0.31
